Terminal Aerodrome Forecast
Issued by NWS Missoula, MT

Home | Current Version | Previous Version | Text Only | Print | Product List | Glossary On
Versions: 1 2 3 4 5 6 7 8 9 10 11 12 13 14 15 16 17 18 19 20 21 22 23 24 25 26 27 28 29 30 31 32 33 34 35
000
FTUS45 KMSO 231120
TAFMSO
TAF
KMSO 231120Z 2312/2412 34006KT 2SM BR SCT004 BKN060
     FM231400 VRB03KT 5SM BR VCFG FEW010 BKN040 OVC070
     FM231500 VRB05KT P6SM BKN040 OVC070
     FM232000 25012KT P6SM -SHRA SCT030 OVC050
     FM240000 27015G22KT 6SM -SHRA BR OVC030
     FM240300 31022G35KT 4SM -RA BR OVC025=

USA.gov is the U.S. government's official web portal to all federal, state and local government web resources and services.